sensor_id;sensor_type;location;lat;lon;timestamp;pressure;altitude;pressure_sealevel;temperature;humidity
70976;BME280;58635;51.198;6.010;2023-02-08T00:01:11;103663.50;;;3.61;53.33
70976;BME280;58635;51.198;6.010;2023-02-08T00:03:37;103663.44;;;3.62;53.14
70976;BME280;58635;51.198;6.010;2023-02-08T00:06:04;103663.34;;;3.64;53.15
70976;BME280;58635;51.198;6.010;2023-02-08T00:08:30;103665.09;;;3.63;53.22
70976;BME280;58635;51.198;6.010;2023-02-08T00:10:55;103664.25;;;3.63;52.88
70976;BME280;58635;51.198;6.010;2023-02-08T00:13:21;103660.88;;;3.62;52.66
70976;BME280;58635;51.198;6.010;2023-02-08T00:15:46;103658.31;;;3.62;52.43
70976;BME280;58635;51.198;6.010;2023-02-08T00:18:13;103651.53;;;3.61;52.65
70976;BME280;58635;51.198;6.010;2023-02-08T00:20:40;103654.09;;;3.61;52.85
70976;BME280;58635;51.198;6.010;2023-02-08T00:23:06;103652.28;;;3.63;52.50
70976;BME280;58635;51.198;6.010;2023-02-08T00:25:32;103654.84;;;3.63;52.41
70976;BME280;58635;51.198;6.010;2023-02-08T00:27:58;103658.97;;;3.66;52.49
70976;BME280;58635;51.198;6.010;2023-02-08T00:30:23;103657.25;;;3.66;52.21
70976;BME280;58635;51.198;6.010;2023-02-08T00:32:48;103652.94;;;3.67;52.29
70976;BME280;58635;51.198;6.010;2023-02-08T00:35:14;103658.94;;;3.67;52.16
70976;BME280;58635;51.198;6.010;2023-02-08T00:37:40;103645.22;;;3.68;51.93
70976;BME280;58635;51.198;6.010;2023-02-08T00:40:06;103647.84;;;3.67;52.02
70976;BME280;58635;51.198;6.010;2023-02-08T00:42:31;103648.69;;;3.67;51.93
70976;BME280;58635;51.198;6.010;2023-02-08T00:44:57;103646.13;;;3.67;52.14
70976;BME280;58635;51.198;6.010;2023-02-08T00:47:23;103647.00;;;3.66;52.43
70976;BME280;58635;51.198;6.010;2023-02-08T00:49:48;103641.97;;;3.65;52.24
70976;BME280;58635;51.198;6.010;2023-02-08T00:52:14;103641.88;;;3.66;52.25
70976;BME280;58635;51.198;6.010;2023-02-08T00:54:39;103636.78;;;3.66;52.29
70976;BME280;58635;51.198;6.010;2023-02-08T00:57:06;103641.84;;;3.68;51.88
70976;BME280;58635;51.198;6.010;2023-02-08T00:59:31;103641.00;;;3.67;51.83
70976;BME280;58635;51.198;6.010;2023-02-08T01:01:57;103645.28;;;3.67;51.52
70976;BME280;58635;51.198;6.010;2023-02-08T01:04:22;103639.34;;;3.66;51.81
70976;BME280;58635;51.198;6.010;2023-02-08T01:06:47;103635.94;;;3.66;51.66
70976;BME280;58635;51.198;6.010;2023-02-08T01:09:13;103644.53;;;3.65;51.56
70976;BME280;58635;51.198;6.010;2023-02-08T01:11:38;103638.66;;;3.63;51.16
70976;BME280;58635;51.198;6.010;2023-02-08T01:14:03;103641.97;;;3.65;51.01
70976;BME280;58635;51.198;6.010;2023-02-08T01:16:30;103640.03;;;3.52;51.03
70976;BME280;58635;51.198;6.010;2023-02-08T01:18:58;103641.25;;;3.45;51.20
70976;BME280;58635;51.198;6.010;2023-02-08T01:21:29;103645.56;;;3.45;51.26
70976;BME280;58635;51.198;6.010;2023-02-08T01:23:56;103643.91;;;3.44;51.36
70976;BME280;58635;51.198;6.010;2023-02-08T01:26:22;103643.91;;;3.44;51.87
70976;BME280;58635;51.198;6.010;2023-02-08T01:28:49;103637.97;;;3.43;51.78
70976;BME280;58635;51.198;6.010;2023-02-08T01:31:20;103639.66;;;3.43;51.69
70976;BME280;58635;51.198;6.010;2023-02-08T01:33:46;103635.44;;;3.42;51.90
70976;BME280;58635;51.198;6.010;2023-02-08T01:36:12;103638.16;;;3.39;52.07
70976;BME280;58635;51.198;6.010;2023-02-08T01:38:38;103633.97;;;3.38;52.34
70976;BME280;58635;51.198;6.010;2023-02-08T01:41:05;103633.22;;;3.36;52.05
70976;BME280;58635;51.198;6.010;2023-02-08T01:43:34;103624.88;;;3.32;52.18
70976;BME280;58635;51.198;6.010;2023-02-08T01:46:00;103637.59;;;3.34;52.15
70976;BME280;58635;51.198;6.010;2023-02-08T01:48:33;103628.31;;;3.31;51.89
70976;BME280;58635;51.198;6.010;2023-02-08T01:53:29;103629.38;;;3.27;52.12
70976;BME280;58635;51.198;6.010;2023-02-08T01:55:58;103627.63;;;3.28;52.32
70976;BME280;58635;51.198;6.010;2023-02-08T01:58:27;103637.03;;;3.27;52.26
70976;BME280;58635;51.198;6.010;2023-02-08T02:00:53;103631.03;;;3.28;52.25
70976;BME280;58635;51.198;6.010;2023-02-08T02:03:21;103626.81;;;3.27;52.03
70976;BME280;58635;51.198;6.010;2023-02-08T02:05:56;103628.53;;;3.27;52.34
70976;BME280;58635;51.198;6.010;2023-02-08T02:08:25;103632.09;;;3.24;52.07
70976;BME280;58635;51.198;6.010;2023-02-08T02:10:51;103634.56;;;3.26;52.35
70976;BME280;58635;51.198;6.010;2023-02-08T02:13:20;103643.13;;;3.25;52.40
70976;BME280;58635;51.198;6.010;2023-02-08T02:15:47;103637.19;;;3.24;52.38
70976;BME280;58635;51.198;6.010;2023-02-08T02:18:17;103645.78;;;3.23;52.34
70976;BME280;58635;51.198;6.010;2023-02-08T02:34:44;103633.03;;;3.04;52.68
70976;BME280;58635;51.198;6.010;2023-02-08T02:37:36;103632.38;;;3.01;52.98
70976;BME280;58635;51.198;6.010;2023-02-08T02:43:23;103631.00;;;2.93;53.02
70976;BME280;58635;51.198;6.010;2023-02-08T02:46:23;103628.53;;;2.92;53.27
70976;BME280;58635;51.198;6.010;2023-02-08T02:51:38;103626.19;;;2.87;53.26
70976;BME280;58635;51.198;6.010;2023-02-08T02:56:43;103625.50;;;2.84;53.68
70976;BME280;58635;51.198;6.010;2023-02-08T02:59:11;103617.91;;;2.82;53.68
70976;BME280;58635;51.198;6.010;2023-02-08T03:01:39;103625.56;;;2.82;53.49
70976;BME280;58635;51.198;6.010;2023-02-08T03:15:48;103623.59;;;2.70;53.05
70976;BME280;58635;51.198;6.010;2023-02-08T03:22:19;103629.91;;;2.63;53.16
70976;BME280;58635;51.198;6.010;2023-02-08T03:24:32;103626.66;;;2.59;53.14
70976;BME280;58635;51.198;6.010;2023-02-08T03:27:09;103630.88;;;2.60;53.26
70976;BME280;58635;51.198;6.010;2023-02-08T03:29:57;103626.66;;;2.59;53.33
70976;BME280;58635;51.198;6.010;2023-02-08T03:32:32;103627.53;;;2.58;53.53
70976;BME280;58635;51.198;6.010;2023-02-08T03:37:36;103632.72;;;2.57;53.57
70976;BME280;58635;51.198;6.010;2023-02-08T03:40:10;103626.88;;;2.55;53.73
70976;BME280;58635;51.198;6.010;2023-02-08T03:42:38;103633.84;;;2.51;53.93
70976;BME280;58635;51.198;6.010;2023-02-08T03:45:11;103629.56;;;2.52;53.79
70976;BME280;58635;51.198;6.010;2023-02-08T03:47:41;103631.38;;;2.50;54.06
70976;BME280;58635;51.198;6.010;2023-02-08T03:50:09;103630.59;;;2.48;53.99
70976;BME280;58635;51.198;6.010;2023-02-08T03:52:36;103637.44;;;2.47;54.34
70976;BME280;58635;51.198;6.010;2023-02-08T03:55:11;103634.06;;;2.47;54.02
70976;BME280;58635;51.198;6.010;2023-02-08T03:57:45;103628.94;;;2.47;54.02
70976;BME280;58635;51.198;6.010;2023-02-08T04:00:14;103640.13;;;2.44;54.01
70976;BME280;58635;51.198;6.010;2023-02-08T04:02:51;103641.03;;;2.43;54.10
70976;BME280;58635;51.198;6.010;2023-02-08T04:05:18;103641.09;;;2.42;54.18
70976;BME280;58635;51.198;6.010;2023-02-08T04:07:44;103633.53;;;2.40;54.07
70976;BME280;58635;51.198;6.010;2023-02-08T04:10:09;103639.59;;;2.38;53.81
70976;BME280;58635;51.198;6.010;2023-02-08T04:12:35;103643.09;;;2.35;54.00
70976;BME280;58635;51.198;6.010;2023-02-08T04:15:00;103643.16;;;2.33;53.99
70976;BME280;58635;51.198;6.010;2023-02-08T04:17:26;103634.75;;;2.31;54.26
70976;BME280;58635;51.198;6.010;2023-02-08T04:19:51;103632.19;;;2.31;53.99
70976;BME280;58635;51.198;6.010;2023-02-08T04:22:16;103636.47;;;2.31;54.21
70976;BME280;58635;51.198;6.010;2023-02-08T04:24:42;103639.19;;;2.28;54.02
70976;BME280;58635;51.198;6.010;2023-02-08T04:27:07;103646.38;;;2.39;54.10
70976;BME280;58635;51.198;6.010;2023-02-08T04:29:32;103645.41;;;2.41;54.04
70976;BME280;58635;51.198;6.010;2023-02-08T04:31:58;103641.09;;;2.42;53.85
70976;BME280;58635;51.198;6.010;2023-02-08T04:34:24;103647.25;;;2.38;54.02
70976;BME280;58635;51.198;6.010;2023-02-08T04:36:49;103648.66;;;2.26;54.48
70976;BME280;58635;51.198;6.010;2023-02-08T04:39:15;103647.09;;;2.22;54.49
70976;BME280;58635;51.198;6.010;2023-02-08T04:41:40;103642.91;;;2.21;54.64
70976;BME280;58635;51.198;6.010;2023-02-08T04:44:05;103637.94;;;2.18;54.83
70976;BME280;58635;51.198;6.010;2023-02-08T04:46:31;103638.84;;;2.17;55.07
70976;BME280;58635;51.198;6.010;2023-02-08T04:48:56;103637.25;;;2.14;55.10
70976;BME280;58635;51.198;6.010;2023-02-08T04:51:22;103633.09;;;2.12;55.17
70976;BME280;58635;51.198;6.010;2023-02-08T04:53:48;103638.34;;;2.09;55.13
70976;BME280;58635;51.198;6.010;2023-02-08T04:56:13;103632.47;;;2.07;55.29
70976;BME280;58635;51.198;6.010;2023-02-08T04:58:38;103636.75;;;2.06;55.01
70976;BME280;58635;51.198;6.010;2023-02-08T05:01:07;103632.47;;;2.07;55.10
70976;BME280;58635;51.198;6.010;2023-02-08T05:03:35;103631.72;;;2.04;54.97
70976;BME280;58635;51.198;6.010;2023-02-08T05:06:00;103625.84;;;2.02;55.04
70976;BME280;58635;51.198;6.010;2023-02-08T05:08:26;103633.50;;;2.02;55.17
70976;BME280;58635;51.198;6.010;2023-02-08T05:10:52;103621.66;;;2.01;55.15
70976;BME280;58635;51.198;6.010;2023-02-08T05:13:17;103626.78;;;2.00;54.86
70976;BME280;58635;51.198;6.010;2023-02-08T05:15:43;103627.69;;;1.99;54.91
70976;BME280;58635;51.198;6.010;2023-02-08T05:18:08;103635.44;;;1.97;54.96
70976;BME280;58635;51.198;6.010;2023-02-08T05:20:33;103628.66;;;1.96;55.05
70976;BME280;58635;51.198;6.010;2023-02-08T05:22:59;103627.00;;;1.95;55.28
70976;BME280;58635;51.198;6.010;2023-02-08T05:25:24;103632.94;;;1.96;55.17
70976;BME280;58635;51.198;6.010;2023-02-08T05:27:50;103631.28;;;1.95;54.89
70976;BME280;58635;51.198;6.010;2023-02-08T05:30:15;103629.63;;;1.94;55.23
70976;BME280;58635;51.198;6.010;2023-02-08T05:32:41;103623.84;;;1.90;55.23
70976;BME280;58635;51.198;6.010;2023-02-08T05:35:06;103629.78;;;1.91;55.31
70976;BME280;58635;51.198;6.010;2023-02-08T05:37:32;103629.81;;;1.89;55.26
70976;BME280;58635;51.198;6.010;2023-02-08T05:39:57;103625.59;;;1.88;55.27
70976;BME280;58635;51.198;6.010;2023-02-08T05:42:23;103626.44;;;1.89;55.35
70976;BME280;58635;51.198;6.010;2023-02-08T05:44:48;103626.50;;;1.87;55.31
70976;BME280;58635;51.198;6.010;2023-02-08T05:47:14;103634.16;;;1.87;55.29
70976;BME280;58635;51.198;6.010;2023-02-08T05:49:39;103636.84;;;1.84;55.17
70976;BME280;58635;51.198;6.010;2023-02-08T05:52:05;103630.09;;;1.83;55.22
70976;BME280;58635;51.198;6.010;2023-02-08T05:54:30;103632.66;;;1.83;55.07
70976;BME280;58635;51.198;6.010;2023-02-08T05:56:55;103621.69;;;1.81;55.15
70976;BME280;58635;51.198;6.010;2023-02-08T05:59:21;103628.44;;;1.82;55.31
70976;BME280;58635;51.198;6.010;2023-02-08T06:01:46;103618.31;;;1.81;55.04
70976;BME280;58635;51.198;6.010;2023-02-08T06:04:12;103622.66;;;1.79;55.06
70976;BME280;58635;51.198;6.010;2023-02-08T06:06:37;103620.94;;;1.79;55.25
70976;BME280;58635;51.198;6.010;2023-02-08T06:09:02;103620.94;;;1.79;55.33
70976;BME280;58635;51.198;6.010;2023-02-08T06:11:29;103626.84;;;1.80;55.17
70976;BME280;58635;51.198;6.010;2023-02-08T06:13:54;103629.41;;;1.80;55.15
70976;BME280;58635;51.198;6.010;2023-02-08T06:16:19;103634.50;;;1.80;55.25
70976;BME280;58635;51.198;6.010;2023-02-08T06:18:45;103638.78;;;1.79;54.95
70976;BME280;58635;51.198;6.010;2023-02-08T06:21:10;103637.13;;;1.78;55.20
70976;BME280;58635;51.198;6.010;2023-02-08T06:23:36;103636.28;;;1.77;55.14
70976;BME280;58635;51.198;6.010;2023-02-08T06:26:02;103635.44;;;1.77;55.00
70976;BME280;58635;51.198;6.010;2023-02-08T06:28:27;103644.78;;;1.78;55.08
70976;BME280;58635;51.198;6.010;2023-02-08T06:30:53;103639.78;;;1.75;55.05
70976;BME280;58635;51.198;6.010;2023-02-08T06:33:18;103635.66;;;1.72;55.05
70976;BME280;58635;51.198;6.010;2023-02-08T06:35:49;103638.28;;;1.71;55.00
70976;BME280;58635;51.198;6.010;2023-02-08T06:38:15;103643.53;;;1.68;54.84
70976;BME280;58635;51.198;6.010;2023-02-08T06:40:41;103639.41;;;1.64;54.96
70976;BME280;58635;51.198;6.010;2023-02-08T06:43:07;103636.09;;;1.62;55.11
70976;BME280;58635;51.198;6.010;2023-02-08T06:45:32;103640.47;;;1.60;55.04
70976;BME280;58635;51.198;6.010;2023-02-08T06:47:58;103636.31;;;1.57;54.94
70976;BME280;58635;51.198;6.010;2023-02-08T06:50:23;103637.28;;;1.55;55.29
70976;BME280;58635;51.198;6.010;2023-02-08T06:52:48;103637.31;;;1.53;55.16
70976;BME280;58635;51.198;6.010;2023-02-08T06:55:15;103636.56;;;1.51;55.22
70976;BME280;58635;51.198;6.010;2023-02-08T06:57:40;103638.41;;;1.48;55.25
70976;BME280;58635;51.198;6.010;2023-02-08T07:00:06;103633.31;;;1.48;55.26
70976;BME280;58635;51.198;6.010;2023-02-08T07:02:32;103626.69;;;1.43;55.50
70976;BME280;58635;51.198;6.010;2023-02-08T07:04:57;103631.84;;;1.42;55.50
70976;BME280;58635;51.198;6.010;2023-02-08T07:07:23;103626.03;;;1.38;55.36
70976;BME280;58635;51.198;6.010;2023-02-08T07:09:48;103626.03;;;1.38;55.57
70976;BME280;58635;51.198;6.010;2023-02-08T07:12:14;103618.47;;;1.37;55.59
70976;BME280;58635;51.198;6.010;2023-02-08T07:14:41;103624.31;;;1.39;55.59
70976;BME280;58635;51.198;6.010;2023-02-08T07:17:06;103617.63;;;1.36;55.74
70976;BME280;58635;51.198;6.010;2023-02-08T07:19:32;103620.19;;;1.36;55.92
70976;BME280;58635;51.198;6.010;2023-02-08T07:21:58;103621.06;;;1.35;55.93
70976;BME280;58635;51.198;6.010;2023-02-08T07:24:36;103624.38;;;1.37;55.70
70976;BME280;58635;51.198;6.010;2023-02-08T07:27:03;103624.38;;;1.37;55.55
70976;BME280;58635;51.198;6.010;2023-02-08T07:29:30;103622.59;;;1.39;55.41
70976;BME280;58635;51.198;6.010;2023-02-08T07:31:57;103626.81;;;1.40;55.57
70976;BME280;58635;51.198;6.010;2023-02-08T07:34:23;103623.34;;;1.41;55.83
70976;BME280;58635;51.198;6.010;2023-02-08T07:36:48;103618.22;;;1.43;55.74
70976;BME280;58635;51.198;6.010;2023-02-08T07:39:14;103612.97;;;1.46;55.82
70976;BME280;58635;51.198;6.010;2023-02-08T07:41:39;103612.03;;;1.49;55.66
70976;BME280;58635;51.198;6.010;2023-02-08T07:44:05;103613.53;;;1.53;55.54
70976;BME280;58635;51.198;6.010;2023-02-08T07:46:30;103611.69;;;1.56;55.57
70976;BME280;58635;51.198;6.010;2023-02-08T07:48:56;103606.47;;;1.59;55.60
70976;BME280;58635;51.198;6.010;2023-02-08T07:51:21;103611.34;;;1.64;55.51
70976;BME280;58635;51.198;6.010;2023-02-08T07:53:47;103606.06;;;1.68;55.48
70976;BME280;58635;51.198;6.010;2023-02-08T07:56:12;103610.28;;;1.69;55.51
70976;BME280;58635;51.198;6.010;2023-02-08T07:58:38;103602.41;;;1.74;55.43
70976;BME280;58635;51.198;6.010;2023-02-08T08:01:03;103607.28;;;1.80;55.57
70976;BME280;58635;51.198;6.010;2023-02-08T08:03:29;103604.50;;;1.85;55.38
70976;BME280;58635;51.198;6.010;2023-02-08T08:05:54;103605.97;;;1.90;55.49
70976;BME280;58635;51.198;6.010;2023-02-08T08:08:19;103599.00;;;1.94;55.26
70976;BME280;58635;51.198;6.010;2023-02-08T08:10:45;103603.06;;;1.98;55.24
70976;BME280;58635;51.198;6.010;2023-02-08T08:13:11;103606.34;;;2.01;54.91
70976;BME280;58635;51.198;6.010;2023-02-08T08:15:38;103607.78;;;2.07;54.73
70976;BME280;58635;51.198;6.010;2023-02-08T08:18:03;103608.53;;;2.09;54.79
70976;BME280;58635;51.198;6.010;2023-02-08T08:20:29;103612.72;;;2.10;54.54
70976;BME280;58635;51.198;6.010;2023-02-08T08:22:59;103610.09;;;2.12;54.62
70976;BME280;58635;51.198;6.010;2023-02-08T08:25:26;103610.09;;;2.12;54.66
70976;BME280;58635;51.198;6.010;2023-02-08T08:27:52;103605.63;;;2.17;54.81
70976;BME280;58635;51.198;6.010;2023-02-08T08:30:17;103609.69;;;2.21;54.75
70976;BME280;58635;51.198;6.010;2023-02-08T08:32:43;103597.63;;;2.24;54.53
70976;BME280;58635;51.198;6.010;2023-02-08T08:35:09;103602.53;;;2.29;54.62
70976;BME280;58635;51.198;6.010;2023-02-08T08:37:35;103604.94;;;2.32;54.39
70976;BME280;58635;51.198;6.010;2023-02-08T08:40:00;103591.91;;;2.38;54.34
70976;BME280;58635;51.198;6.010;2023-02-08T08:42:26;103590.78;;;2.44;54.23
70976;BME280;58635;51.198;6.010;2023-02-08T08:44:52;103586.28;;;2.49;54.18
70976;BME280;58635;51.198;6.010;2023-02-08T08:47:18;103586.22;;;2.50;54.13
70976;BME280;58635;51.198;6.010;2023-02-08T08:49:43;103593.59;;;2.56;54.01
70976;BME280;58635;51.198;6.010;2023-02-08T08:52:10;103597.59;;;2.62;53.90
70976;BME280;58635;51.198;6.010;2023-02-08T08:54:35;103596.63;;;2.64;53.83
70976;BME280;58635;51.198;6.010;2023-02-08T08:57:01;103594.81;;;2.67;53.76
70976;BME280;58635;51.198;6.010;2023-02-08T08:59:27;103597.13;;;2.71;53.57
70976;BME280;58635;51.198;6.010;2023-02-08T09:01:52;103599.50;;;2.76;53.45
70976;BME280;58635;51.198;6.010;2023-02-08T09:04:18;103590.78;;;2.80;53.38
70976;BME280;58635;51.198;6.010;2023-02-08T09:06:47;103584.53;;;2.85;53.39
70976;BME280;58635;51.198;6.010;2023-02-08T09:09:12;103580.03;;;2.90;53.28
70976;BME280;58635;51.198;6.010;2023-02-08T09:11:38;103592.53;;;2.97;53.18
70976;BME280;58635;51.198;6.010;2023-02-08T09:14:04;103588.81;;;3.02;52.86
70976;BME280;58635;51.198;6.010;2023-02-08T09:16:30;103587.75;;;3.06;52.86
70976;BME280;58635;51.198;6.010;2023-02-08T09:18:59;103594.31;;;3.12;52.49
70976;BME280;58635;51.198;6.010;2023-02-08T09:21:25;103595.75;;;3.17;52.71
70976;BME280;58635;51.198;6.010;2023-02-08T09:23:50;103585.31;;;3.22;52.31
70976;BME280;58635;51.198;6.010;2023-02-08T09:26:17;103590.91;;;3.29;52.48
70976;BME280;58635;51.198;6.010;2023-02-08T09:28:43;103596.56;;;3.35;51.88
70976;BME280;58635;51.198;6.010;2023-02-08T09:31:23;103596.16;;;3.43;51.61
70976;BME280;58635;51.198;6.010;2023-02-08T09:33:49;103592.97;;;3.55;51.66
70976;BME280;58635;51.198;6.010;2023-02-08T09:36:16;103594.94;;;3.67;50.74
70976;BME280;58635;51.198;6.010;2023-02-08T09:38:42;103596.19;;;3.76;50.82
70976;BME280;58635;51.198;6.010;2023-02-08T09:41:23;103599.09;;;3.86;50.46
70976;BME280;58635;51.198;6.010;2023-02-08T09:44:11;103599.53;;;3.94;50.07
70976;BME280;58635;51.198;6.010;2023-02-08T09:46:45;103600.84;;;4.01;50.04
70976;BME280;58635;51.198;6.010;2023-02-08T09:49:18;103606.38;;;4.09;49.93
70976;BME280;58635;51.198;6.010;2023-02-08T09:51:50;103600.88;;;4.17;49.53
70976;BME280;58635;51.198;6.010;2023-02-08T09:54:36;103592.94;;;4.21;49.32
70976;BME280;58635;51.198;6.010;2023-02-08T09:57:08;103589.97;;;4.29;49.13
70976;BME280;58635;51.198;6.010;2023-02-08T09:59:36;103591.34;;;4.34;48.67
70976;BME280;58635;51.198;6.010;2023-02-08T10:05:02;103591.41;;;4.49;48.15
70976;BME280;58635;51.198;6.010;2023-02-08T10:07:29;103599.50;;;4.57;48.29
70976;BME280;58635;51.198;6.010;2023-02-08T10:09:57;103600.09;;;4.62;47.79
70976;BME280;58635;51.198;6.010;2023-02-08T10:15:09;103597.75;;;4.73;47.09
70976;BME280;58635;51.198;6.010;2023-02-08T10:23:19;103610.44;;;4.90;46.38
70976;BME280;58635;51.198;6.010;2023-02-08T10:28:34;103605.44;;;5.03;46.14
70976;BME280;58635;51.198;6.010;2023-02-08T10:33:59;103607.31;;;5.15;45.92
70976;BME280;58635;51.198;6.010;2023-02-08T10:36:29;103607.69;;;5.23;45.40
70976;BME280;58635;51.198;6.010;2023-02-08T10:38:56;103606.50;;;5.29;45.45
70976;BME280;58635;51.198;6.010;2023-02-08T10:41:28;103608.72;;;5.35;44.62
70976;BME280;58635;51.198;6.010;2023-02-08T10:46:50;103599.47;;;5.47;44.14
70976;BME280;58635;51.198;6.010;2023-02-08T10:51:56;103603.16;;;5.57;43.83
70976;BME280;58635;51.198;6.010;2023-02-08T10:54:21;103602.69;;;5.65;42.99
70976;BME280;58635;51.198;6.010;2023-02-08T10:56:54;103585.34;;;5.68;42.59
70976;BME280;58635;51.198;6.010;2023-02-08T10:59:27;103578.22;;;5.73;42.31
70976;BME280;58635;51.198;6.010;2023-02-08T11:01:55;103591.47;;;5.80;42.20
70976;BME280;58635;51.198;6.010;2023-02-08T11:04:20;103588.66;;;5.84;41.80
70976;BME280;58635;51.198;6.010;2023-02-08T11:06:47;103586.72;;;5.88;41.54
70976;BME280;58635;51.198;6.010;2023-02-08T11:09:19;103573.34;;;5.97;40.88
70976;BME280;58635;51.198;6.010;2023-02-08T11:11:45;103570.47;;;6.02;40.73
70976;BME280;58635;51.198;6.010;2023-02-08T11:14:25;103575.25;;;6.08;40.26
70976;BME280;58635;51.198;6.010;2023-02-08T11:16:56;103567.25;;;6.12;40.61
70976;BME280;58635;51.198;6.010;2023-02-08T11:19:41;103566.88;;;6.19;40.65
70976;BME280;58635;51.198;6.010;2023-02-08T11:22:18;103569.97;;;6.24;40.66
70976;BME280;58635;51.198;6.010;2023-02-08T11:24:45;103566.31;;;6.28;40.69
70976;BME280;58635;51.198;6.010;2023-02-08T11:32:47;103562.84;;;6.41;40.13
70976;BME280;58635;51.198;6.010;2023-02-08T11:35:23;103557.88;;;6.38;40.79
70976;BME280;58635;51.198;6.010;2023-02-08T11:37:50;103554.13;;;6.44;40.50
70976;BME280;58635;51.198;6.010;2023-02-08T11:40:36;103541.78;;;6.49;40.45
70976;BME280;58635;51.198;6.010;2023-02-08T11:43:20;103535.44;;;6.55;39.68
70976;BME280;58635;51.198;6.010;2023-02-08T11:45:46;103522.25;;;6.59;39.98
70976;BME280;58635;51.198;6.010;2023-02-08T11:48:21;103518.50;;;6.65;39.20
70976;BME280;58635;51.198;6.010;2023-02-08T11:50:53;103518.88;;;6.71;38.84
70976;BME280;58635;51.198;6.010;2023-02-08T11:53:35;103515.81;;;6.79;38.33
70976;BME280;58635;51.198;6.010;2023-02-08T11:58:46;103509.25;;;6.88;39.17
70976;BME280;58635;51.198;6.010;2023-02-08T12:01:20;103510.47;;;6.95;38.66
70976;BME280;58635;51.198;6.010;2023-02-08T12:03:47;103505.66;;;7.03;38.64
70976;BME280;58635;51.198;6.010;2023-02-08T12:21:24;103495.50;;;7.51;37.27
70976;BME280;58635;51.198;6.010;2023-02-08T12:29:17;103477.91;;;7.69;36.90
70976;BME280;58635;51.198;6.010;2023-02-08T12:37:55;103472.69;;;7.94;35.47
70976;BME280;58635;51.198;6.010;2023-02-08T12:52:40;103452.09;;;8.29;33.96
70976;BME280;58635;51.198;6.010;2023-02-08T12:55:27;103448.13;;;8.36;34.00
70976;BME280;58635;51.198;6.010;2023-02-08T12:57:58;103445.94;;;8.43;33.64
70976;BME280;58635;51.198;6.010;2023-02-08T13:00:27;103443.84;;;8.48;33.36
70976;BME280;58635;51.198;6.010;2023-02-08T13:04:14;103441.63;;;8.55;33.58
70976;BME280;58635;51.198;6.010;2023-02-08T13:06:27;103434.13;;;8.63;33.77
70976;BME280;58635;51.198;6.010;2023-02-08T13:08:59;103432.03;;;8.68;33.40
70976;BME280;58635;51.198;6.010;2023-02-08T13:11:34;103419.47;;;8.74;33.53
70976;BME280;58635;51.198;6.010;2023-02-08T13:14:39;103418.19;;;8.80;33.42
70976;BME280;58635;51.198;6.010;2023-02-08T13:17:49;103413.50;;;8.85;33.38
70976;BME280;58635;51.198;6.010;2023-02-08T13:22:58;103402.34;;;8.96;33.31
70976;BME280;58635;51.198;6.010;2023-02-08T13:25:31;103404.69;;;8.99;32.89
70976;BME280;58635;51.198;6.010;2023-02-08T13:28:06;103406.09;;;9.03;32.74
70976;BME280;58635;51.198;6.010;2023-02-08T13:30:36;103391.19;;;9.06;33.00
70976;BME280;58635;51.198;6.010;2023-02-08T13:33:28;103388.03;;;9.14;33.13
70976;BME280;58635;51.198;6.010;2023-02-08T13:35:56;103390.34;;;9.17;32.80
70976;BME280;58635;51.198;6.010;2023-02-08T13:38:33;103387.66;;;9.19;32.80
70976;BME280;58635;51.198;6.010;2023-02-08T13:41:12;103378.97;;;9.20;32.80
70976;BME280;58635;51.198;6.010;2023-02-08T13:43:45;103378.84;;;9.21;33.03
70976;BME280;58635;51.198;6.010;2023-02-08T13:46:12;103368.16;;;9.26;33.24
70976;BME280;58635;51.198;6.010;2023-02-08T13:48:57;103369.56;;;9.30;32.72
70976;BME280;58635;51.198;6.010;2023-02-08T13:56:37;103356.34;;;9.44;33.64
70976;BME280;58635;51.198;6.010;2023-02-08T14:02:20;103347.78;;;9.44;32.45
70976;BME280;58635;51.198;6.010;2023-02-08T14:04:50;103352.94;;;9.44;32.57
70976;BME280;58635;51.198;6.010;2023-02-08T14:07:36;103348.47;;;9.46;32.43
70976;BME280;58635;51.198;6.010;2023-02-08T14:12:40;103345.91;;;9.46;32.25
70976;BME280;58635;51.198;6.010;2023-02-08T14:17:44;103330.53;;;9.44;32.45
70976;BME280;58635;51.198;6.010;2023-02-08T14:20:19;103327.13;;;9.44;32.39
70976;BME280;58635;51.198;6.010;2023-02-08T14:22:51;103322.66;;;9.46;32.61
70976;BME280;58635;51.198;6.010;2023-02-08T14:25:20;103327.81;;;9.46;32.39
70976;BME280;58635;51.198;6.010;2023-02-08T14:27:53;103329.56;;;9.45;32.35
70976;BME280;58635;51.198;6.010;2023-02-08T14:30:31;103331.59;;;9.42;31.93
70976;BME280;58635;51.198;6.010;2023-02-08T14:35:30;103319.75;;;9.39;32.59
70976;BME280;58635;51.198;6.010;2023-02-08T14:41:02;103316.34;;;9.38;32.29
70976;BME280;58635;51.198;6.010;2023-02-08T14:49:14;103308.13;;;9.33;32.16
70976;BME280;58635;51.198;6.010;2023-02-08T14:51:46;103303.78;;;9.34;31.95
70976;BME280;58635;51.198;6.010;2023-02-08T14:54:20;103294.41;;;9.33;31.75
70976;BME280;58635;51.198;6.010;2023-02-08T14:56:54;103297.94;;;9.32;31.47
70976;BME280;58635;51.198;6.010;2023-02-08T14:59:25;103296.44;;;9.29;31.46
70976;BME280;58635;51.198;6.010;2023-02-08T15:02:18;103298.31;;;9.27;31.64
70976;BME280;58635;51.198;6.010;2023-02-08T15:04:45;103295.16;;;9.24;32.00
70976;BME280;58635;51.198;6.010;2023-02-08T15:10:16;103290.09;;;9.22;32.59
70976;BME280;58635;51.198;6.010;2023-02-08T15:12:45;103294.31;;;9.23;32.98
70976;BME280;58635;51.198;6.010;2023-02-08T15:15:30;103297.03;;;9.22;32.75
70976;BME280;58635;51.198;6.010;2023-02-08T15:17:57;103296.34;;;9.20;33.10
70976;BME280;58635;51.198;6.010;2023-02-08T15:20:24;103302.56;;;9.17;32.88
70976;BME280;58635;51.198;6.010;2023-02-08T15:25:29;103285.44;;;9.16;33.35
70976;BME280;58635;51.198;6.010;2023-02-08T15:28:00;103282.72;;;9.18;33.46
70976;BME280;58635;51.198;6.010;2023-02-08T15:32:54;103272.66;;;9.15;33.73
70976;BME280;58635;51.198;6.010;2023-02-08T15:35:21;103280.53;;;9.13;33.79
70976;BME280;58635;51.198;6.010;2023-02-08T15:37:48;103285.81;;;9.12;33.87